sensor_id;sensor_type;location;lat;lon;timestamp;pressure;altitude;pressure_sealevel;temperature;humidity
21240;BME280;10778;48.962;9.018;2024-03-23T00:53:51;98342.25;;;5.10;100.00
21240;BME280;10778;48.962;9.018;2024-03-23T00:56:17;98345.13;;;5.07;100.00
21240;BME280;10778;48.962;9.018;2024-03-23T00:58:43;98333.72;;;5.08;100.00
21240;BME280;10778;48.962;9.018;2024-03-23T01:01:09;98343.66;;;5.15;100.00
21240;BME280;10778;48.962;9.018;2024-03-23T01:03:35;98342.47;;;5.19;100.00
21240;BME280;10778;48.962;9.018;2024-03-23T01:06:01;98324.78;;;5.22;100.00
21240;BME280;10778;48.962;9.018;2024-03-23T01:08:28;98328.09;;;5.24;100.00
21240;BME280;10778;48.962;9.018;2024-03-23T01:10:59;98315.75;;;5.26;100.00
21240;BME280;10778;48.962;9.018;2024-03-23T01:13:25;98303.31;;;5.30;100.00
21240;BME280;10778;48.962;9.018;2024-03-23T01:15:52;98306.78;;;5.31;100.00
21240;BME280;10778;48.962;9.018;2024-03-23T01:18:19;98319.22;;;5.27;100.00
21240;BME280;10778;48.962;9.018;2024-03-23T01:20:45;98310.56;;;5.26;100.00
21240;BME280;10778;48.962;9.018;2024-03-23T01:23:11;98301.03;;;5.37;100.00
21240;BME280;10778;48.962;9.018;2024-03-23T01:25:37;98299.13;;;5.39;100.00
21240;BME280;10778;48.962;9.018;2024-03-23T01:28:04;98305.56;;;5.35;100.00
21240;BME280;10778;48.962;9.018;2024-03-23T01:30:30;98298.53;;;5.35;100.00
21240;BME280;10778;48.962;9.018;2024-03-23T01:32:56;98296.41;;;5.40;100.00
21240;BME280;10778;48.962;9.018;2024-03-23T01:35:22;98290.59;;;5.37;100.00
21240;BME280;10778;48.962;9.018;2024-03-23T01:37:48;98281.72;;;5.39;100.00
21240;BME280;10778;48.962;9.018;2024-03-23T01:40:16;98274.44;;;5.43;100.00
21240;BME280;10778;48.962;9.018;2024-03-23T01:42:42;98272.94;;;5.40;100.00
21240;BME280;10778;48.962;9.018;2024-03-23T01:45:09;98253.84;;;5.40;100.00
21240;BME280;10778;48.962;9.018;2024-03-23T01:47:38;98244.09;;;5.42;100.00
21240;BME280;10778;48.962;9.018;2024-03-23T01:50:04;98262.03;;;5.35;100.00
21240;BME280;10778;48.962;9.018;2024-03-23T01:52:30;98265.41;;;5.26;100.00
21240;BME280;10778;48.962;9.018;2024-03-23T01:54:56;98255.78;;;5.26;100.00
21240;BME280;10778;48.962;9.018;2024-03-23T01:57:22;98249.88;;;5.24;100.00
21240;BME280;10778;48.962;9.018;2024-03-23T01:59:48;98250.81;;;5.23;100.00
21240;BME280;10778;48.962;9.018;2024-03-23T02:02:23;98238.63;;;5.24;100.00
21240;BME280;10778;48.962;9.018;2024-03-23T02:04:49;98237.09;;;5.21;100.00
21240;BME280;10778;48.962;9.018;2024-03-23T02:07:15;98248.84;;;5.16;100.00
21240;BME280;10778;48.962;9.018;2024-03-23T02:09:41;98234.25;;;5.13;100.00
21240;BME280;10778;48.962;9.018;2024-03-23T02:12:07;98235.09;;;5.13;100.00
21240;BME280;10778;48.962;9.018;2024-03-23T02:14:33;98238.22;;;5.07;100.00
21240;BME280;10778;48.962;9.018;2024-03-23T02:16:59;98241.88;;;5.05;100.00
21240;BME280;10778;48.962;9.018;2024-03-23T02:19:25;98231.47;;;5.05;100.00
21240;BME280;10778;48.962;9.018;2024-03-23T02:21:51;98231.00;;;5.00;100.00
21240;BME280;10778;48.962;9.018;2024-03-23T02:24:17;98228.53;;;4.98;100.00
21240;BME280;10778;48.962;9.018;2024-03-23T02:26:43;98216.31;;;4.98;100.00
21240;BME280;10778;48.962;9.018;2024-03-23T02:29:09;98209.94;;;4.91;100.00
21240;BME280;10778;48.962;9.018;2024-03-23T02:31:36;98211.13;;;4.87;100.00
21240;BME280;10778;48.962;9.018;2024-03-23T02:34:02;98216.09;;;4.90;100.00
21240;BME280;10778;48.962;9.018;2024-03-23T02:36:28;98223.56;;;4.95;100.00
21240;BME280;10778;48.962;9.018;2024-03-23T02:38:56;98217.16;;;4.88;100.00
21240;BME280;10778;48.962;9.018;2024-03-23T02:41:22;98220.72;;;4.87;100.00
21240;BME280;10778;48.962;9.018;2024-03-23T02:43:49;98222.97;;;4.91;100.00
21240;BME280;10778;48.962;9.018;2024-03-23T02:46:15;98233.88;;;4.96;100.00
21240;BME280;10778;48.962;9.018;2024-03-23T02:48:41;98228.25;;;4.80;100.00
21240;BME280;10778;48.962;9.018;2024-03-23T02:51:07;98218.59;;;4.92;100.00
21240;BME280;10778;48.962;9.018;2024-03-23T02:53:33;98216.66;;;5.05;100.00
21240;BME280;10778;48.962;9.018;2024-03-23T02:55:59;98214.78;;;4.96;100.00
21240;BME280;10778;48.962;9.018;2024-03-23T02:58:25;98211.22;;;4.97;100.00
21240;BME280;10778;48.962;9.018;2024-03-23T03:00:51;98205.75;;;5.00;100.00
21240;BME280;10778;48.962;9.018;2024-03-23T03:03:17;98198.53;;;5.04;100.00
21240;BME280;10778;48.962;9.018;2024-03-23T03:05:43;98190.81;;;5.02;100.00
21240;BME280;10778;48.962;9.018;2024-03-23T03:08:09;98178.00;;;5.10;100.00
21240;BME280;10778;48.962;9.018;2024-03-23T03:10:35;98173.03;;;5.07;100.00
21240;BME280;10778;48.962;9.018;2024-03-23T03:13:02;98170.66;;;5.04;100.00
21240;BME280;10778;48.962;9.018;2024-03-23T03:15:29;98177.66;;;5.04;100.00
21240;BME280;10778;48.962;9.018;2024-03-23T03:17:55;98170.09;;;5.01;100.00
21240;BME280;10778;48.962;9.018;2024-03-23T03:20:21;98190.00;;;5.02;100.00
21240;BME280;10778;48.962;9.018;2024-03-23T03:22:49;98187.13;;;5.05;100.00
21240;BME280;10778;48.962;9.018;2024-03-23T03:25:15;98170.44;;;5.07;100.00
21240;BME280;10778;48.962;9.018;2024-03-23T03:27:41;98169.06;;;5.13;100.00
21240;BME280;10778;48.962;9.018;2024-03-23T03:30:07;98169.16;;;5.23;100.00
21240;BME280;10778;48.962;9.018;2024-03-23T03:32:34;98179.19;;;5.27;100.00
21240;BME280;10778;48.962;9.018;2024-03-23T03:35:00;98177.16;;;5.31;100.00
21240;BME280;10778;48.962;9.018;2024-03-23T03:37:26;98170.47;;;5.38;100.00
21240;BME280;10778;48.962;9.018;2024-03-23T03:39:52;98168.88;;;5.47;100.00
21240;BME280;10778;48.962;9.018;2024-03-23T03:42:18;98165.03;;;5.41;100.00
21240;BME280;10778;48.962;9.018;2024-03-23T03:44:44;98135.53;;;5.51;100.00
21240;BME280;10778;48.962;9.018;2024-03-23T03:47:10;98122.34;;;5.43;100.00
21240;BME280;10778;48.962;9.018;2024-03-23T03:49:36;98115.00;;;5.36;100.00
21240;BME280;10778;48.962;9.018;2024-03-23T03:52:02;98119.47;;;5.24;100.00
21240;BME280;10778;48.962;9.018;2024-03-23T03:54:28;98120.69;;;5.20;100.00
21240;BME280;10778;48.962;9.018;2024-03-23T03:56:54;98124.84;;;5.23;100.00
21240;BME280;10778;48.962;9.018;2024-03-23T03:59:20;98126.50;;;5.24;100.00
21240;BME280;10778;48.962;9.018;2024-03-23T04:01:46;98119.63;;;5.23;100.00
21240;BME280;10778;48.962;9.018;2024-03-23T04:04:12;98124.31;;;5.29;100.00
21240;BME280;10778;48.962;9.018;2024-03-23T04:06:39;98128.94;;;5.47;100.00
21240;BME280;10778;48.962;9.018;2024-03-23T04:09:05;98126.22;;;6.40;100.00
21240;BME280;10778;48.962;9.018;2024-03-23T04:11:32;98125.88;;;8.17;100.00
21240;BME280;10778;48.962;9.018;2024-03-23T04:13:58;98123.22;;;8.81;100.00
21240;BME280;10778;48.962;9.018;2024-03-23T04:16:26;98131.75;;;9.46;100.00
21240;BME280;10778;48.962;9.018;2024-03-23T04:18:52;98137.25;;;9.35;100.00
21240;BME280;10778;48.962;9.018;2024-03-23T04:21:18;98151.13;;;9.27;100.00
21240;BME280;10778;48.962;9.018;2024-03-23T04:23:44;98133.03;;;9.42;100.00
21240;BME280;10778;48.962;9.018;2024-03-23T04:26:11;98143.53;;;9.42;100.00
21240;BME280;10778;48.962;9.018;2024-03-23T04:28:37;98156.75;;;9.32;100.00
21240;BME280;10778;48.962;9.018;2024-03-23T04:31:04;98137.91;;;9.37;100.00
21240;BME280;10778;48.962;9.018;2024-03-23T04:33:30;98126.41;;;9.30;100.00
21240;BME280;10778;48.962;9.018;2024-03-23T04:35:56;98124.97;;;9.35;100.00
21240;BME280;10778;48.962;9.018;2024-03-23T04:38:22;98119.41;;;9.38;100.00
21240;BME280;10778;48.962;9.018;2024-03-23T04:40:59;98125.97;;;9.43;100.00
21240;BME280;10778;48.962;9.018;2024-03-23T04:43:26;98123.22;;;9.44;100.00
21240;BME280;10778;48.962;9.018;2024-03-23T04:45:52;98122.34;;;9.35;100.00
21240;BME280;10778;48.962;9.018;2024-03-23T04:48:22;98133.31;;;9.39;100.00
21240;BME280;10778;48.962;9.018;2024-03-23T04:50:57;98139.00;;;9.52;100.00
21240;BME280;10778;48.962;9.018;2024-03-23T04:53:24;98144.66;;;9.39;100.00
21240;BME280;10778;48.962;9.018;2024-03-23T04:55:58;98157.06;;;9.29;100.00
21240;BME280;10778;48.962;9.018;2024-03-23T04:58:25;98153.16;;;9.33;100.00
21240;BME280;10778;48.962;9.018;2024-03-23T05:00:54;98139.16;;;9.24;100.00
21240;BME280;10778;48.962;9.018;2024-03-23T05:03:21;98146.28;;;9.14;100.00
21240;BME280;10778;48.962;9.018;2024-03-23T05:05:48;98143.75;;;9.04;100.00
21240;BME280;10778;48.962;9.018;2024-03-23T05:08:15;98157.41;;;9.08;100.00
21240;BME280;10778;48.962;9.018;2024-03-23T05:10:44;98154.09;;;9.06;100.00
21240;BME280;10778;48.962;9.018;2024-03-23T05:13:11;98164.00;;;9.12;100.00
21240;BME280;10778;48.962;9.018;2024-03-23T05:15:37;98167.72;;;9.09;100.00
21240;BME280;10778;48.962;9.018;2024-03-23T05:18:04;98176.59;;;9.08;100.00
21240;BME280;10778;48.962;9.018;2024-03-23T05:20:31;98180.84;;;9.09;100.00
21240;BME280;10778;48.962;9.018;2024-03-23T05:22:57;98169.09;;;8.95;100.00
21240;BME280;10778;48.962;9.018;2024-03-23T05:25:23;98178.41;;;8.90;100.00
21240;BME280;10778;48.962;9.018;2024-03-23T05:27:49;98182.66;;;8.91;100.00
21240;BME280;10778;48.962;9.018;2024-03-23T05:30:16;98184.53;;;8.80;100.00
21240;BME280;10778;48.962;9.018;2024-03-23T05:32:42;98188.72;;;8.73;100.00
21240;BME280;10778;48.962;9.018;2024-03-23T05:35:09;98186.84;;;8.65;100.00
21240;BME280;10778;48.962;9.018;2024-03-23T05:37:35;98174.19;;;8.61;100.00
21240;BME280;10778;48.962;9.018;2024-03-23T05:40:01;98173.50;;;8.59;100.00
21240;BME280;10778;48.962;9.018;2024-03-23T05:42:29;98165.66;;;8.49;100.00
21240;BME280;10778;48.962;9.018;2024-03-23T05:44:55;98169.84;;;8.51;100.00
21240;BME280;10778;48.962;9.018;2024-03-23T05:47:21;98170.69;;;8.42;100.00
21240;BME280;10778;48.962;9.018;2024-03-23T05:49:47;98189.31;;;8.39;100.00
21240;BME280;10778;48.962;9.018;2024-03-23T05:52:13;98195.25;;;8.41;100.00
21240;BME280;10778;48.962;9.018;2024-03-23T05:54:39;98211.81;;;8.42;100.00
21240;BME280;10778;48.962;9.018;2024-03-23T05:57:05;98221.44;;;8.41;100.00
21240;BME280;10778;48.962;9.018;2024-03-23T05:59:34;98233.03;;;8.38;100.00
21240;BME280;10778;48.962;9.018;2024-03-23T06:02:00;98223.03;;;8.34;100.00
21240;BME280;10778;48.962;9.018;2024-03-23T06:04:26;98214.91;;;8.27;100.00
21240;BME280;10778;48.962;9.018;2024-03-23T06:06:52;98209.41;;;8.20;100.00
21240;BME280;10778;48.962;9.018;2024-03-23T06:09:18;98204.91;;;8.13;100.00
21240;BME280;10778;48.962;9.018;2024-03-23T06:11:45;98200.81;;;8.00;100.00
21240;BME280;10778;48.962;9.018;2024-03-23T06:14:11;98207.00;;;7.99;100.00
21240;BME280;10778;48.962;9.018;2024-03-23T06:16:37;98212.25;;;7.99;100.00
21240;BME280;10778;48.962;9.018;2024-03-23T06:19:03;98225.63;;;7.96;100.00
21240;BME280;10778;48.962;9.018;2024-03-23T06:21:32;98249.78;;;7.90;100.00
21240;BME280;10778;48.962;9.018;2024-03-23T06:23:59;98251.72;;;7.88;100.00
21240;BME280;10778;48.962;9.018;2024-03-23T06:26:25;98263.00;;;7.88;100.00
21240;BME280;10778;48.962;9.018;2024-03-23T06:28:51;98267.69;;;7.85;100.00
21240;BME280;10778;48.962;9.018;2024-03-23T06:31:17;98268.97;;;7.80;100.00
21240;BME280;10778;48.962;9.018;2024-03-23T06:33:43;98275.72;;;7.83;100.00
21240;BME280;10778;48.962;9.018;2024-03-23T06:36:10;98279.84;;;7.76;100.00
21240;BME280;10778;48.962;9.018;2024-03-23T06:38:39;98270.50;;;7.73;100.00
21240;BME280;10778;48.962;9.018;2024-03-23T06:41:05;98290.75;;;7.71;100.00
21240;BME280;10778;48.962;9.018;2024-03-23T06:43:31;98291.44;;;7.73;100.00
21240;BME280;10778;48.962;9.018;2024-03-23T06:45:57;98292.25;;;7.74;100.00
21240;BME280;10778;48.962;9.018;2024-03-23T06:48:23;98319.97;;;7.76;100.00
21240;BME280;10778;48.962;9.018;2024-03-23T06:50:49;98326.28;;;7.74;100.00
21240;BME280;10778;48.962;9.018;2024-03-23T06:53:15;98328.34;;;7.70;100.00
21240;BME280;10778;48.962;9.018;2024-03-23T06:55:42;98325.50;;;7.73;100.00
21240;BME280;10778;48.962;9.018;2024-03-23T06:58:08;98338.97;;;7.88;100.00
21240;BME280;10778;48.962;9.018;2024-03-23T07:00:34;98352.75;;;7.90;100.00
21240;BME280;10778;48.962;9.018;2024-03-23T07:03:00;98355.09;;;7.74;100.00
21240;BME280;10778;48.962;9.018;2024-03-23T07:05:26;98362.00;;;7.65;100.00
21240;BME280;10778;48.962;9.018;2024-03-23T07:07:52;98369.84;;;7.55;100.00
21240;BME280;10778;48.962;9.018;2024-03-23T07:10:18;98378.94;;;7.51;100.00
21240;BME280;10778;48.962;9.018;2024-03-23T07:12:44;98376.44;;;7.39;100.00
21240;BME280;10778;48.962;9.018;2024-03-23T07:15:10;98377.78;;;7.34;100.00
21240;BME280;10778;48.962;9.018;2024-03-23T07:17:36;98391.16;;;7.40;100.00
21240;BME280;10778;48.962;9.018;2024-03-23T07:20:03;98383.59;;;7.28;100.00
21240;BME280;10778;48.962;9.018;2024-03-23T07:22:32;98395.59;;;7.30;100.00
21240;BME280;10778;48.962;9.018;2024-03-23T07:25:02;98396.28;;;7.32;100.00
21240;BME280;10778;48.962;9.018;2024-03-23T07:27:28;98396.53;;;7.29;100.00
21240;BME280;10778;48.962;9.018;2024-03-23T07:29:54;98392.97;;;7.30;100.00
21240;BME280;10778;48.962;9.018;2024-03-23T07:32:20;98395.88;;;7.37;100.00
21240;BME280;10778;48.962;9.018;2024-03-23T07:34:46;98398.75;;;7.44;100.00
21240;BME280;10778;48.962;9.018;2024-03-23T07:37:13;98393.38;;;7.45;100.00
21240;BME280;10778;48.962;9.018;2024-03-23T07:39:39;98397.16;;;7.62;100.00
21240;BME280;10778;48.962;9.018;2024-03-23T07:42:06;98418.34;;;7.69;100.00
21240;BME280;10778;48.962;9.018;2024-03-23T07:44:32;98433.66;;;7.64;100.00
21240;BME280;10778;48.962;9.018;2024-03-23T07:47:00;98443.00;;;7.47;100.00
21240;BME280;10778;48.962;9.018;2024-03-23T07:49:26;98444.16;;;7.23;100.00
21240;BME280;10778;48.962;9.018;2024-03-23T07:51:52;98463.16;;;7.25;100.00
21240;BME280;10778;48.962;9.018;2024-03-23T07:54:18;98487.50;;;7.16;100.00
21240;BME280;10778;48.962;9.018;2024-03-23T07:56:44;98504.25;;;7.03;100.00
21240;BME280;10778;48.962;9.018;2024-03-23T07:59:10;98514.06;;;6.90;100.00
21240;BME280;10778;48.962;9.018;2024-03-23T08:01:36;98509.06;;;6.77;100.00
21240;BME280;10778;48.962;9.018;2024-03-23T08:04:02;98528.03;;;6.58;100.00
21240;BME280;10778;48.962;9.018;2024-03-23T08:06:28;98532.25;;;6.49;100.00
21240;BME280;10778;48.962;9.018;2024-03-23T08:08:55;98536.53;;;6.71;100.00
21240;BME280;10778;48.962;9.018;2024-03-23T08:11:28;98545.53;;;6.78;100.00
21240;BME280;10778;48.962;9.018;2024-03-23T08:13:55;98529.84;;;6.78;100.00
21240;BME280;10778;48.962;9.018;2024-03-23T08:16:22;98529.38;;;6.73;100.00
21240;BME280;10778;48.962;9.018;2024-03-23T08:18:48;98518.63;;;8.60;100.00
21240;BME280;10778;48.962;9.018;2024-03-23T08:21:16;98521.94;;;9.85;90.13
21240;BME280;10778;48.962;9.018;2024-03-23T08:23:42;98527.31;;;9.56;92.38
21240;BME280;10778;48.962;9.018;2024-03-23T08:26:12;98537.66;;;8.81;94.40
21240;BME280;10778;48.962;9.018;2024-03-23T08:28:38;98552.56;;;8.22;98.48
21240;BME280;10778;48.962;9.018;2024-03-23T08:31:10;98554.16;;;7.93;100.00
21240;BME280;10778;48.962;9.018;2024-03-23T08:33:37;98563.75;;;8.44;98.34
21240;BME280;10778;48.962;9.018;2024-03-23T08:36:08;98568.28;;;8.22;96.10
21240;BME280;10778;48.962;9.018;2024-03-23T08:38:34;98556.69;;;8.24;97.87
21240;BME280;10778;48.962;9.018;2024-03-23T08:43:32;98578.41;;;7.95;94.23
21240;BME280;10778;48.962;9.018;2024-03-23T08:46:12;98585.16;;;7.88;96.29
21240;BME280;10778;48.962;9.018;2024-03-23T08:48:39;98590.53;;;7.87;94.95
21240;BME280;10778;48.962;9.018;2024-03-23T08:51:10;98595.38;;;8.01;94.36
21240;BME280;10778;48.962;9.018;2024-03-23T08:53:37;98607.50;;;7.92;93.81
21240;BME280;10778;48.962;9.018;2024-03-23T08:56:04;98615.59;;;8.20;89.56
21240;BME280;10778;48.962;9.018;2024-03-23T08:58:31;98611.81;;;8.03;91.44
21240;BME280;10778;48.962;9.018;2024-03-23T09:01:03;98631.25;;;8.01;92.60
21240;BME280;10778;48.962;9.018;2024-03-23T09:03:30;98620.81;;;8.10;91.50
21240;BME280;10778;48.962;9.018;2024-03-23T09:05:56;98617.84;;;7.94;91.20
21240;BME280;10778;48.962;9.018;2024-03-23T09:08:22;98632.00;;;7.81;92.02
21240;BME280;10778;48.962;9.018;2024-03-23T09:10:48;98627.53;;;7.62;90.36
21240;BME280;10778;48.962;9.018;2024-03-23T09:13:14;98627.06;;;7.57;90.77
21240;BME280;10778;48.962;9.018;2024-03-23T09:15:48;98627.78;;;7.59;89.70
21240;BME280;10778;48.962;9.018;2024-03-23T09:18:14;98627.75;;;9.30;86.64
21240;BME280;10778;48.962;9.018;2024-03-23T09:20:40;98632.91;;;8.72;85.94
21240;BME280;10778;48.962;9.018;2024-03-23T09:23:06;98633.09;;;9.86;82.10
21240;BME280;10778;48.962;9.018;2024-03-23T09:25:36;98642.25;;;9.34;80.08
21240;BME280;10778;48.962;9.018;2024-03-23T09:28:02;98646.59;;;8.66;80.75
21240;BME280;10778;48.962;9.018;2024-03-23T09:30:28;98655.25;;;8.57;83.01
21240;BME280;10778;48.962;9.018;2024-03-23T09:32:54;98656.09;;;8.57;84.90
21240;BME280;10778;48.962;9.018;2024-03-23T09:35:20;98664.50;;;8.51;86.35
21240;BME280;10778;48.962;9.018;2024-03-23T09:37:46;98665.03;;;9.53;79.29
21240;BME280;10778;48.962;9.018;2024-03-23T09:40:12;98646.00;;;10.81;71.86
21240;BME280;10778;48.962;9.018;2024-03-23T09:42:38;98643.19;;;11.01;67.81
21240;BME280;10778;48.962;9.018;2024-03-23T09:45:12;98648.34;;;11.55;66.29
21240;BME280;10778;48.962;9.018;2024-03-23T09:47:42;98639.84;;;11.70;63.55
21240;BME280;10778;48.962;9.018;2024-03-23T09:50:09;98624.44;;;11.48;64.78
21240;BME280;10778;48.962;9.018;2024-03-23T09:52:35;98629.44;;;11.60;60.41
21240;BME280;10778;48.962;9.018;2024-03-23T09:55:01;98637.34;;;11.94;62.41
21240;BME280;10778;48.962;9.018;2024-03-23T09:57:27;98624.47;;;12.26;60.34
21240;BME280;10778;48.962;9.018;2024-03-23T09:59:53;98631.38;;;10.87;59.10
21240;BME280;10778;48.962;9.018;2024-03-23T10:02:21;98635.13;;;10.02;62.20
21240;BME280;10778;48.962;9.018;2024-03-23T10:04:47;98651.13;;;9.13;65.16
21240;BME280;10778;48.962;9.018;2024-03-23T10:07:14;98650.03;;;8.76;65.20
21240;BME280;10778;48.962;9.018;2024-03-23T10:09:40;98648.88;;;8.49;68.35
21240;BME280;10778;48.962;9.018;2024-03-23T10:12:16;98653.41;;;8.37;71.34
21240;BME280;10778;48.962;9.018;2024-03-23T10:14:42;98651.84;;;8.66;69.42
21240;BME280;10778;48.962;9.018;2024-03-23T10:17:16;98648.66;;;8.62;67.48
21240;BME280;10778;48.962;9.018;2024-03-23T10:19:47;98646.84;;;9.12;66.38
21240;BME280;10778;48.962;9.018;2024-03-23T10:22:23;98646.72;;;8.94;66.38
21240;BME280;10778;48.962;9.018;2024-03-23T10:24:52;98637.59;;;8.68;67.73
21240;BME280;10778;48.962;9.018;2024-03-23T10:27:20;98651.56;;;8.59;69.33
21240;BME280;10778;48.962;9.018;2024-03-23T10:29:47;98656.78;;;8.59;69.75
21240;BME280;10778;48.962;9.018;2024-03-23T10:32:15;98667.34;;;8.38;72.12
21240;BME280;10778;48.962;9.018;2024-03-23T10:34:41;98678.28;;;8.12;71.40
21240;BME280;10778;48.962;9.018;2024-03-23T10:37:08;98696.25;;;7.86;74.12
21240;BME280;10778;48.962;9.018;2024-03-23T10:39:36;98714.63;;;7.43;75.58
21240;BME280;10778;48.962;9.018;2024-03-23T10:42:03;98720.97;;;7.08;80.45
21240;BME280;10778;48.962;9.018;2024-03-23T10:44:30;98738.34;;;6.65;82.03
21240;BME280;10778;48.962;9.018;2024-03-23T10:47:00;98744.88;;;6.59;85.66
21240;BME280;10778;48.962;9.018;2024-03-23T10:49:31;98750.59;;;6.07;88.38
21240;BME280;10778;48.962;9.018;2024-03-23T10:52:07;98727.44;;;5.91;89.41
21240;BME280;10778;48.962;9.018;2024-03-23T10:54:33;98717.72;;;6.05;91.68
21240;BME280;10778;48.962;9.018;2024-03-23T10:57:12;98709.66;;;6.08;89.92
21240;BME280;10778;48.962;9.018;2024-03-23T10:59:39;98708.22;;;6.04;89.47
21240;BME280;10778;48.962;9.018;2024-03-23T11:02:06;98703.81;;;6.27;92.09
21240;BME280;10778;48.962;9.018;2024-03-23T11:04:37;98704.06;;;6.24;92.66
21240;BME280;10778;48.962;9.018;2024-03-23T11:09:52;98707.47;;;6.24;92.44
21240;BME280;10778;48.962;9.018;2024-03-23T11:15:12;98700.75;;;6.77;89.98
21240;BME280;10778;48.962;9.018;2024-03-23T11:17:38;98694.34;;;8.29;85.09
21240;BME280;10778;48.962;9.018;2024-03-23T11:20:06;98687.75;;;8.34;81.66
21240;BME280;10778;48.962;9.018;2024-03-23T11:22:38;98692.94;;;7.83;82.33
21240;BME280;10778;48.962;9.018;2024-03-23T11:25:22;98701.41;;;8.28;81.27
21240;BME280;10778;48.962;9.018;2024-03-23T11:27:53;98689.34;;;8.57;81.48
21240;BME280;10778;48.962;9.018;2024-03-23T11:30:23;98691.22;;;8.35;81.14
21240;BME280;10778;48.962;9.018;2024-03-23T11:32:51;98690.28;;;8.46;80.88
21240;BME280;10778;48.962;9.018;2024-03-23T11:35:33;98689.53;;;9.14;79.89
21240;BME280;10778;48.962;9.018;2024-03-23T11:38:15;98675.97;;;9.38;75.98
21240;BME280;10778;48.962;9.018;2024-03-23T11:40:45;98671.34;;;9.60;72.53
21240;BME280;10778;48.962;9.018;2024-03-23T11:43:13;98669.13;;;9.65;75.44
21240;BME280;10778;48.962;9.018;2024-03-23T11:45:48;98657.81;;;10.03;73.67
21240;BME280;10778;48.962;9.018;2024-03-23T11:48:17;98667.56;;;9.82;72.50
21240;BME280;10778;48.962;9.018;2024-03-23T11:50:47;98674.41;;;9.46;71.29
21240;BME280;10778;48.962;9.018;2024-03-23T11:53:15;98666.03;;;9.80;69.95
21240;BME280;10778;48.962;9.018;2024-03-23T11:55:43;98659.59;;;10.02;70.19
21240;BME280;10778;48.962;9.018;2024-03-23T11:58:10;98665.44;;;9.96;69.42
21240;BME280;10778;48.962;9.018;2024-03-23T12:00:37;98659.94;;;9.42;66.28
21240;BME280;10778;48.962;9.018;2024-03-23T12:03:03;98657.09;;;10.01;65.05
21240;BME280;10778;48.962;9.018;2024-03-23T12:05:30;98654.94;;;9.96;63.83
21240;BME280;10778;48.962;9.018;2024-03-23T12:08:16;98640.03;;;9.29;62.57
21240;BME280;10778;48.962;9.018;2024-03-23T12:11:04;98637.94;;;9.43;61.04
21240;BME280;10778;48.962;9.018;2024-03-23T12:13:31;98633.31;;;10.02;59.86
21240;BME280;10778;48.962;9.018;2024-03-23T12:16:19;98637.59;;;10.03;60.68
21240;BME280;10778;48.962;9.018;2024-03-23T12:18:49;98615.63;;;9.94;58.17
21240;BME280;10778;48.962;9.018;2024-03-23T12:21:15;98634.00;;;9.19;60.68
21240;BME280;10778;48.962;9.018;2024-03-23T12:23:43;98632.06;;;9.21;62.07
21240;BME280;10778;48.962;9.018;2024-03-23T12:26:13;98626.38;;;9.16;61.17
21240;BME280;10778;48.962;9.018;2024-03-23T12:28:39;98627.19;;;10.12;60.30
21240;BME280;10778;48.962;9.018;2024-03-23T12:31:05;98615.22;;;10.45;60.17
21240;BME280;10778;48.962;9.018;2024-03-23T12:33:31;98615.84;;;10.57;58.86
21240;BME280;10778;48.962;9.018;2024-03-23T12:35:57;98619.44;;;10.56;59.46
21240;BME280;10778;48.962;9.018;2024-03-23T12:38:23;98612.47;;;10.83;58.85
21240;BME280;10778;48.962;9.018;2024-03-23T12:40:50;98610.22;;;10.70;59.22
21240;BME280;10778;48.962;9.018;2024-03-23T12:43:16;98612.28;;;10.30;58.74
21240;BME280;10778;48.962;9.018;2024-03-23T12:45:46;98608.00;;;10.01;59.99
21240;BME280;10778;48.962;9.018;2024-03-23T12:48:13;98608.56;;;10.51;59.03
21240;BME280;10778;48.962;9.018;2024-03-23T12:50:38;98597.69;;;11.08;58.01
21240;BME280;10778;48.962;9.018;2024-03-23T12:53:04;98593.66;;;11.49;57.24
21240;BME280;10778;48.962;9.018;2024-03-23T12:55:30;98596.50;;;10.85;57.52
21240;BME280;10778;48.962;9.018;2024-03-23T12:57:56;98593.75;;;11.13;54.38
21240;BME280;10778;48.962;9.018;2024-03-23T13:00:22;98593.38;;;11.60;54.31
21240;BME280;10778;48.962;9.018;2024-03-23T13:02:48;98589.69;;;10.56;56.52
21240;BME280;10778;48.962;9.018;2024-03-23T13:05:15;98603.97;;;10.25;56.63
21240;BME280;10778;48.962;9.018;2024-03-23T13:07:40;98604.03;;;10.15;55.75
21240;BME280;10778;48.962;9.018;2024-03-23T13:10:07;98603.34;;;9.95;54.44
21240;BME280;10778;48.962;9.018;2024-03-23T13:12:33;98588.66;;;10.38;54.26
21240;BME280;10778;48.962;9.018;2024-03-23T13:14:59;98591.00;;;10.78;54.73
21240;BME280;10778;48.962;9.018;2024-03-23T13:17:26;98586.84;;;11.12;55.95
21240;BME280;10778;48.962;9.018;2024-03-23T13:19:55;98575.31;;;11.39;53.38
21240;BME280;10778;48.962;9.018;2024-03-23T13:22:22;98577.44;;;11.70;55.44
21240;BME280;10778;48.962;9.018;2024-03-23T13:24:48;98567.44;;;11.82;54.13
21240;BME280;10778;48.962;9.018;2024-03-23T13:27:14;98559.03;;;11.78;53.07
21240;BME280;10778;48.962;9.018;2024-03-23T13:29:40;98559.00;;;11.70;52.88
21240;BME280;10778;48.962;9.018;2024-03-23T13:32:06;98556.16;;;11.29;54.00
21240;BME280;10778;48.962;9.018;2024-03-23T13:34:32;98568.88;;;10.44;57.18
21240;BME280;10778;48.962;9.018;2024-03-23T13:36:59;98590.72;;;9.71;57.65
21240;BME280;10778;48.962;9.018;2024-03-23T13:39:25;98656.22;;;7.74;72.45
21240;BME280;10778;48.962;9.018;2024-03-23T13:41:53;98674.72;;;6.76;84.65
21240;BME280;10778;48.962;9.018;2024-03-23T13:44:20;98681.94;;;6.51;88.43
21240;BME280;10778;48.962;9.018;2024-03-23T13:46:46;98669.56;;;6.53;88.94
21240;BME280;10778;48.962;9.018;2024-03-23T13:49:24;98662.47;;;6.44;88.50
21240;BME280;10778;48.962;9.018;2024-03-23T13:51:50;98663.16;;;6.46;88.17
21240;BME280;10778;48.962;9.018;2024-03-23T13:54:16;98669.59;;;6.42;90.44
21240;BME280;10778;48.962;9.018;2024-03-23T13:56:42;98670.53;;;6.52;88.55
21240;BME280;10778;48.962;9.018;2024-03-23T13:59:08;98667.44;;;7.12;86.96
21240;BME280;10778;48.962;9.018;2024-03-23T14:01:34;98662.63;;;8.22;76.57
21240;BME280;10778;48.962;9.018;2024-03-23T14:04:00;98651.69;;;8.67;74.25